sensor_id;sensor_type;location;lat;lon;timestamp;temperature;humidity
8778;DHT22;4425;50.872;4.712;2024-03-23T00:54:07;7.10;99.90
8778;DHT22;4425;50.872;4.712;2024-03-23T00:56:33;7.30;99.90
8778;DHT22;4425;50.872;4.712;2024-03-23T00:59:00;7.30;99.90
8778;DHT22;4425;50.872;4.712;2024-03-23T01:01:25;7.30;99.90
8778;DHT22;4425;50.872;4.712;2024-03-23T01:03:52;7.40;99.90
8778;DHT22;4425;50.872;4.712;2024-03-23T01:06:18;7.50;99.90
8778;DHT22;4425;50.872;4.712;2024-03-23T01:08:47;7.20;99.90
8778;DHT22;4425;50.872;4.712;2024-03-23T01:11:13;7.20;99.90
8778;DHT22;4425;50.872;4.712;2024-03-23T01:13:39;7.20;99.90
8778;DHT22;4425;50.872;4.712;2024-03-23T01:16:05;7.20;99.90
8778;DHT22;4425;50.872;4.712;2024-03-23T01:18:32;7.20;99.90
8778;DHT22;4425;50.872;4.712;2024-03-23T01:20:58;7.30;99.90
8778;DHT22;4425;50.872;4.712;2024-03-23T01:23:25;7.40;99.90
8778;DHT22;4425;50.872;4.712;2024-03-23T01:25:55;7.30;99.90
8778;DHT22;4425;50.872;4.712;2024-03-23T01:28:22;7.40;99.90
8778;DHT22;4425;50.872;4.712;2024-03-23T01:30:49;7.40;99.90
8778;DHT22;4425;50.872;4.712;2024-03-23T01:33:16;7.40;99.90
8778;DHT22;4425;50.872;4.712;2024-03-23T01:35:42;7.40;99.90
8778;DHT22;4425;50.872;4.712;2024-03-23T01:38:09;7.40;99.90
8778;DHT22;4425;50.872;4.712;2024-03-23T01:40:34;7.40;99.90
8778;DHT22;4425;50.872;4.712;2024-03-23T01:43:05;7.40;99.90
8778;DHT22;4425;50.872;4.712;2024-03-23T01:45:31;7.40;99.90
8778;DHT22;4425;50.872;4.712;2024-03-23T01:47:58;7.40;99.90
8778;DHT22;4425;50.872;4.712;2024-03-23T01:50:24;7.40;99.90
8778;DHT22;4425;50.872;4.712;2024-03-23T01:52:51;7.40;99.90
8778;DHT22;4425;50.872;4.712;2024-03-23T01:55:17;7.40;99.90
8778;DHT22;4425;50.872;4.712;2024-03-23T01:57:44;7.40;99.90
8778;DHT22;4425;50.872;4.712;2024-03-23T02:00:13;7.30;99.90
8778;DHT22;4425;50.872;4.712;2024-03-23T02:02:43;7.30;99.90
8778;DHT22;4425;50.872;4.712;2024-03-23T02:05:10;7.30;99.90
8778;DHT22;4425;50.872;4.712;2024-03-23T02:07:38;7.30;99.90
8778;DHT22;4425;50.872;4.712;2024-03-23T02:10:05;7.30;99.90
8778;DHT22;4425;50.872;4.712;2024-03-23T02:12:32;7.20;99.90
8778;DHT22;4425;50.872;4.712;2024-03-23T02:14:58;7.20;99.90
8778;DHT22;4425;50.872;4.712;2024-03-23T02:17:28;7.10;99.90
8778;DHT22;4425;50.872;4.712;2024-03-23T02:19:54;7.00;99.90
8778;DHT22;4425;50.872;4.712;2024-03-23T02:22:21;7.10;99.90
8778;DHT22;4425;50.872;4.712;2024-03-23T02:24:48;6.90;99.90
8778;DHT22;4425;50.872;4.712;2024-03-23T02:27:15;6.90;99.90
8778;DHT22;4425;50.872;4.712;2024-03-23T02:29:41;6.90;99.90
8778;DHT22;4425;50.872;4.712;2024-03-23T02:32:08;6.90;99.90
8778;DHT22;4425;50.872;4.712;2024-03-23T02:34:34;6.90;99.90
8778;DHT22;4425;50.872;4.712;2024-03-23T02:37:01;6.90;99.90
8778;DHT22;4425;50.872;4.712;2024-03-23T02:39:27;6.90;99.90
8778;DHT22;4425;50.872;4.712;2024-03-23T02:41:59;6.90;99.90
8778;DHT22;4425;50.872;4.712;2024-03-23T02:44:25;7.10;99.90
8778;DHT22;4425;50.872;4.712;2024-03-23T02:46:51;7.20;99.90
8778;DHT22;4425;50.872;4.712;2024-03-23T02:49:17;7.30;99.90
8778;DHT22;4425;50.872;4.712;2024-03-23T02:51:47;7.30;99.90
8778;DHT22;4425;50.872;4.712;2024-03-23T02:54:14;7.30;99.90
8778;DHT22;4425;50.872;4.712;2024-03-23T02:56:41;7.20;99.90
8778;DHT22;4425;50.872;4.712;2024-03-23T02:59:08;7.20;99.90
8778;DHT22;4425;50.872;4.712;2024-03-23T03:01:35;7.10;99.90
8778;DHT22;4425;50.872;4.712;2024-03-23T03:04:01;7.20;99.90
8778;DHT22;4425;50.872;4.712;2024-03-23T03:06:29;7.20;99.90
8778;DHT22;4425;50.872;4.712;2024-03-23T03:08:55;7.30;99.90
8778;DHT22;4425;50.872;4.712;2024-03-23T03:11:22;7.20;99.90
8778;DHT22;4425;50.872;4.712;2024-03-23T03:13:48;7.20;99.90
8778;DHT22;4425;50.872;4.712;2024-03-23T03:16:16;7.20;99.90
8778;DHT22;4425;50.872;4.712;2024-03-23T03:18:42;7.30;99.90
8778;DHT22;4425;50.872;4.712;2024-03-23T03:21:11;7.30;99.90
8778;DHT22;4425;50.872;4.712;2024-03-23T03:23:38;7.40;99.90
8778;DHT22;4425;50.872;4.712;2024-03-23T03:26:05;7.40;99.90
8778;DHT22;4425;50.872;4.712;2024-03-23T03:28:31;7.40;99.90
8778;DHT22;4425;50.872;4.712;2024-03-23T03:30:59;7.40;99.90
8778;DHT22;4425;50.872;4.712;2024-03-23T03:33:26;7.40;99.90
8778;DHT22;4425;50.872;4.712;2024-03-23T03:35:53;7.40;99.90
8778;DHT22;4425;50.872;4.712;2024-03-23T03:38:19;7.20;99.90
8778;DHT22;4425;50.872;4.712;2024-03-23T03:40:46;7.30;99.90
8778;DHT22;4425;50.872;4.712;2024-03-23T03:43:12;7.30;99.90
8778;DHT22;4425;50.872;4.712;2024-03-23T03:45:39;7.30;99.90
8778;DHT22;4425;50.872;4.712;2024-03-23T03:48:06;7.30;99.90
8778;DHT22;4425;50.872;4.712;2024-03-23T03:50:34;7.30;99.90
8778;DHT22;4425;50.872;4.712;2024-03-23T03:53:00;7.40;99.90
8778;DHT22;4425;50.872;4.712;2024-03-23T03:55:27;7.40;99.90
8778;DHT22;4425;50.872;4.712;2024-03-23T03:57:53;7.40;99.90
8778;DHT22;4425;50.872;4.712;2024-03-23T04:00:20;7.20;99.90
8778;DHT22;4425;50.872;4.712;2024-03-23T04:02:47;7.30;99.90
8778;DHT22;4425;50.872;4.712;2024-03-23T04:05:13;7.30;99.90
8778;DHT22;4425;50.872;4.712;2024-03-23T04:07:42;7.30;99.90
8778;DHT22;4425;50.872;4.712;2024-03-23T04:10:08;7.20;99.90
8778;DHT22;4425;50.872;4.712;2024-03-23T04:12:35;7.10;99.90
8778;DHT22;4425;50.872;4.712;2024-03-23T04:15:01;7.20;99.90
8778;DHT22;4425;50.872;4.712;2024-03-23T04:17:30;7.40;99.90
8778;DHT22;4425;50.872;4.712;2024-03-23T04:19:58;7.20;99.90
8778;DHT22;4425;50.872;4.712;2024-03-23T04:22:25;7.20;99.90
8778;DHT22;4425;50.872;4.712;2024-03-23T04:24:53;7.20;99.90
8778;DHT22;4425;50.872;4.712;2024-03-23T04:27:20;7.10;99.90
8778;DHT22;4425;50.872;4.712;2024-03-23T04:29:47;7.20;99.90
8778;DHT22;4425;50.872;4.712;2024-03-23T04:32:15;7.20;99.90
8778;DHT22;4425;50.872;4.712;2024-03-23T04:34:41;7.20;99.90
8778;DHT22;4425;50.872;4.712;2024-03-23T04:37:09;7.20;99.90
8778;DHT22;4425;50.872;4.712;2024-03-23T04:39:36;7.20;99.90
8778;DHT22;4425;50.872;4.712;2024-03-23T04:42:05;7.20;99.90
8778;DHT22;4425;50.872;4.712;2024-03-23T04:44:32;7.20;99.90
8778;DHT22;4425;50.872;4.712;2024-03-23T04:47:00;7.20;99.90
8778;DHT22;4425;50.872;4.712;2024-03-23T04:49:27;7.30;99.90
8778;DHT22;4425;50.872;4.712;2024-03-23T04:51:54;7.20;99.90
8778;DHT22;4425;50.872;4.712;2024-03-23T04:54:21;7.30;99.90
8778;DHT22;4425;50.872;4.712;2024-03-23T04:56:48;7.30;99.90
8778;DHT22;4425;50.872;4.712;2024-03-23T04:59:16;7.30;99.90
8778;DHT22;4425;50.872;4.712;2024-03-23T05:01:42;7.40;99.90
8778;DHT22;4425;50.872;4.712;2024-03-23T05:04:09;7.30;99.90
8778;DHT22;4425;50.872;4.712;2024-03-23T05:06:35;7.40;99.90
8778;DHT22;4425;50.872;4.712;2024-03-23T05:09:02;7.40;99.90
8778;DHT22;4425;50.872;4.712;2024-03-23T05:11:31;7.40;99.90
8778;DHT22;4425;50.872;4.712;2024-03-23T05:13:58;7.50;99.90
8778;DHT22;4425;50.872;4.712;2024-03-23T05:16:25;7.40;99.90
8778;DHT22;4425;50.872;4.712;2024-03-23T05:18:54;7.30;99.90
8778;DHT22;4425;50.872;4.712;2024-03-23T05:21:20;7.30;99.90
8778;DHT22;4425;50.872;4.712;2024-03-23T05:23:47;7.30;99.90
8778;DHT22;4425;50.872;4.712;2024-03-23T05:26:13;7.20;99.90
8778;DHT22;4425;50.872;4.712;2024-03-23T05:28:40;7.30;99.90
8778;DHT22;4425;50.872;4.712;2024-03-23T05:31:06;7.20;99.90
8778;DHT22;4425;50.872;4.712;2024-03-23T05:33:35;7.20;99.90
8778;DHT22;4425;50.872;4.712;2024-03-23T05:36:04;7.10;99.90
8778;DHT22;4425;50.872;4.712;2024-03-23T05:38:31;7.10;99.90
8778;DHT22;4425;50.872;4.712;2024-03-23T05:40:58;7.00;99.90
8778;DHT22;4425;50.872;4.712;2024-03-23T05:43:25;7.10;99.90
8778;DHT22;4425;50.872;4.712;2024-03-23T05:45:54;7.10;99.90
8778;DHT22;4425;50.872;4.712;2024-03-23T05:48:21;7.10;99.90
8778;DHT22;4425;50.872;4.712;2024-03-23T05:50:49;7.10;99.90
8778;DHT22;4425;50.872;4.712;2024-03-23T05:53:17;7.10;99.90
8778;DHT22;4425;50.872;4.712;2024-03-23T05:55:43;7.10;99.90
8778;DHT22;4425;50.872;4.712;2024-03-23T05:58:11;7.10;99.90
8778;DHT22;4425;50.872;4.712;2024-03-23T06:00:37;7.00;99.90
8778;DHT22;4425;50.872;4.712;2024-03-23T06:03:04;7.00;99.90
8778;DHT22;4425;50.872;4.712;2024-03-23T06:05:30;7.10;99.90
8778;DHT22;4425;50.872;4.712;2024-03-23T06:07:59;7.10;99.90
8778;DHT22;4425;50.872;4.712;2024-03-23T06:10:24;7.10;99.90
8778;DHT22;4425;50.872;4.712;2024-03-23T06:12:51;7.20;99.90
8778;DHT22;4425;50.872;4.712;2024-03-23T06:15:19;7.30;99.90
8778;DHT22;4425;50.872;4.712;2024-03-23T06:17:46;7.40;99.90
8778;DHT22;4425;50.872;4.712;2024-03-23T06:20:12;7.40;99.90
8778;DHT22;4425;50.872;4.712;2024-03-23T06:22:39;7.60;99.90
8778;DHT22;4425;50.872;4.712;2024-03-23T06:25:07;7.50;99.90
8778;DHT22;4425;50.872;4.712;2024-03-23T06:27:34;7.50;99.90
8778;DHT22;4425;50.872;4.712;2024-03-23T06:30:00;7.60;99.90
8778;DHT22;4425;50.872;4.712;2024-03-23T06:32:27;7.60;99.90
8778;DHT22;4425;50.872;4.712;2024-03-23T06:34:54;7.70;99.90
8778;DHT22;4425;50.872;4.712;2024-03-23T06:37:21;7.70;99.90
8778;DHT22;4425;50.872;4.712;2024-03-23T06:39:47;7.70;99.90
8778;DHT22;4425;50.872;4.712;2024-03-23T06:42:15;7.80;99.90
8778;DHT22;4425;50.872;4.712;2024-03-23T06:44:41;7.80;99.90
8778;DHT22;4425;50.872;4.712;2024-03-23T06:47:08;7.80;99.90
8778;DHT22;4425;50.872;4.712;2024-03-23T06:49:34;7.90;99.90
8778;DHT22;4425;50.872;4.712;2024-03-23T06:52:01;8.10;99.90
8778;DHT22;4425;50.872;4.712;2024-03-23T06:54:27;8.00;99.90
8778;DHT22;4425;50.872;4.712;2024-03-23T06:56:53;8.10;99.90
8778;DHT22;4425;50.872;4.712;2024-03-23T06:59:21;8.20;99.90
8778;DHT22;4425;50.872;4.712;2024-03-23T07:01:48;8.20;99.90
8778;DHT22;4425;50.872;4.712;2024-03-23T07:04:13;8.20;99.90
8778;DHT22;4425;50.872;4.712;2024-03-23T07:06:44;8.20;99.90
8778;DHT22;4425;50.872;4.712;2024-03-23T07:09:10;8.10;99.90
8778;DHT22;4425;50.872;4.712;2024-03-23T07:11:36;8.20;99.90
8778;DHT22;4425;50.872;4.712;2024-03-23T07:14:02;8.10;99.90
8778;DHT22;4425;50.872;4.712;2024-03-23T07:16:31;8.40;99.90
8778;DHT22;4425;50.872;4.712;2024-03-23T07:18:57;8.20;99.90
8778;DHT22;4425;50.872;4.712;2024-03-23T07:21:24;8.40;99.90
8778;DHT22;4425;50.872;4.712;2024-03-23T07:23:50;8.40;99.90
8778;DHT22;4425;50.872;4.712;2024-03-23T07:26:17;9.20;99.90
8778;DHT22;4425;50.872;4.712;2024-03-23T07:28:44;10.00;99.90
8778;DHT22;4425;50.872;4.712;2024-03-23T07:31:13;10.10;99.90
8778;DHT22;4425;50.872;4.712;2024-03-23T07:33:45;9.80;99.90
8778;DHT22;4425;50.872;4.712;2024-03-23T07:36:12;9.30;99.90
8778;DHT22;4425;50.872;4.712;2024-03-23T07:38:40;8.90;99.90
8778;DHT22;4425;50.872;4.712;2024-03-23T07:41:08;8.60;99.90
8778;DHT22;4425;50.872;4.712;2024-03-23T07:43:34;8.50;99.90
8778;DHT22;4425;50.872;4.712;2024-03-23T07:46:02;8.40;99.90
8778;DHT22;4425;50.872;4.712;2024-03-23T07:48:29;8.30;99.90
8778;DHT22;4425;50.872;4.712;2024-03-23T07:50:58;8.20;99.90
8778;DHT22;4425;50.872;4.712;2024-03-23T07:53:24;8.20;99.90
8778;DHT22;4425;50.872;4.712;2024-03-23T07:55:55;8.30;99.90
8778;DHT22;4425;50.872;4.712;2024-03-23T07:58:22;8.60;99.90
8778;DHT22;4425;50.872;4.712;2024-03-23T08:00:49;8.80;99.90
8778;DHT22;4425;50.872;4.712;2024-03-23T08:03:14;9.50;99.90
8778;DHT22;4425;50.872;4.712;2024-03-23T08:05:41;10.50;99.90
8778;DHT22;4425;50.872;4.712;2024-03-23T08:08:09;10.90;99.90
8778;DHT22;4425;50.872;4.712;2024-03-23T08:10:36;11.90;99.90
8778;DHT22;4425;50.872;4.712;2024-03-23T08:13:02;13.50;99.90
8778;DHT22;4425;50.872;4.712;2024-03-23T08:15:30;14.60;99.90
8778;DHT22;4425;50.872;4.712;2024-03-23T08:17:59;15.40;99.90
8778;DHT22;4425;50.872;4.712;2024-03-23T08:20:26;15.00;99.90
8778;DHT22;4425;50.872;4.712;2024-03-23T08:22:52;15.40;99.90
8778;DHT22;4425;50.872;4.712;2024-03-23T08:25:21;15.00;99.90
8778;DHT22;4425;50.872;4.712;2024-03-23T08:27:47;14.90;99.90
8778;DHT22;4425;50.872;4.712;2024-03-23T08:30:14;14.20;99.90
8778;DHT22;4425;50.872;4.712;2024-03-23T08:32:40;13.50;99.90
8778;DHT22;4425;50.872;4.712;2024-03-23T08:35:08;12.70;99.90
8778;DHT22;4425;50.872;4.712;2024-03-23T08:37:33;12.00;99.90
8778;DHT22;4425;50.872;4.712;2024-03-23T08:40:00;11.10;99.90
8778;DHT22;4425;50.872;4.712;2024-03-23T08:42:28;10.40;99.90
8778;DHT22;4425;50.872;4.712;2024-03-23T08:44:55;10.10;99.90
8778;DHT22;4425;50.872;4.712;2024-03-23T08:47:21;10.20;99.90
8778;DHT22;4425;50.872;4.712;2024-03-23T08:49:48;10.20;99.90
8778;DHT22;4425;50.872;4.712;2024-03-23T08:52:14;10.10;99.90
8778;DHT22;4425;50.872;4.712;2024-03-23T08:54:40;10.10;99.90
8778;DHT22;4425;50.872;4.712;2024-03-23T08:57:06;10.00;99.90
8778;DHT22;4425;50.872;4.712;2024-03-23T08:59:35;10.20;99.90
8778;DHT22;4425;50.872;4.712;2024-03-23T09:02:01;10.20;99.90
8778;DHT22;4425;50.872;4.712;2024-03-23T09:04:28;10.10;99.90
8778;DHT22;4425;50.872;4.712;2024-03-23T09:06:54;10.00;99.90
8778;DHT22;4425;50.872;4.712;2024-03-23T09:09:21;10.20;99.90
8778;DHT22;4425;50.872;4.712;2024-03-23T09:11:48;9.90;99.90
8778;DHT22;4425;50.872;4.712;2024-03-23T09:14:14;9.80;99.90
8778;DHT22;4425;50.872;4.712;2024-03-23T09:16:42;9.90;99.90
8778;DHT22;4425;50.872;4.712;2024-03-23T09:19:09;9.90;99.90
8778;DHT22;4425;50.872;4.712;2024-03-23T09:21:35;9.90;99.90
8778;DHT22;4425;50.872;4.712;2024-03-23T09:24:01;10.00;99.90
8778;DHT22;4425;50.872;4.712;2024-03-23T09:26:27;10.10;99.90
8778;DHT22;4425;50.872;4.712;2024-03-23T09:28:55;9.80;99.90
8778;DHT22;4425;50.872;4.712;2024-03-23T09:31:21;10.00;99.90
8778;DHT22;4425;50.872;4.712;2024-03-23T09:33:49;10.00;99.90
8778;DHT22;4425;50.872;4.712;2024-03-23T09:36:15;9.80;99.90
8778;DHT22;4425;50.872;4.712;2024-03-23T09:38:42;9.90;99.90
8778;DHT22;4425;50.872;4.712;2024-03-23T09:41:09;9.90;99.90
8778;DHT22;4425;50.872;4.712;2024-03-23T09:43:36;9.80;99.90
8778;DHT22;4425;50.872;4.712;2024-03-23T09:46:02;9.90;99.90
8778;DHT22;4425;50.872;4.712;2024-03-23T09:48:29;9.80;99.90
8778;DHT22;4425;50.872;4.712;2024-03-23T09:50:57;9.90;99.90
8778;DHT22;4425;50.872;4.712;2024-03-23T09:53:24;10.00;99.90
8778;DHT22;4425;50.872;4.712;2024-03-23T09:55:50;9.90;99.90
8778;DHT22;4425;50.872;4.712;2024-03-23T09:58:18;9.90;99.90
8778;DHT22;4425;50.872;4.712;2024-03-23T10:00:44;9.90;99.90
8778;DHT22;4425;50.872;4.712;2024-03-23T10:03:11;10.10;99.90
8778;DHT22;4425;50.872;4.712;2024-03-23T10:05:38;10.40;99.90
8778;DHT22;4425;50.872;4.712;2024-03-23T10:08:18;10.50;99.90
8778;DHT22;4425;50.872;4.712;2024-03-23T10:10:45;10.70;99.90
8778;DHT22;4425;50.872;4.712;2024-03-23T10:13:24;10.80;99.90
8778;DHT22;4425;50.872;4.712;2024-03-23T10:15:55;10.70;99.90
8778;DHT22;4425;50.872;4.712;2024-03-23T10:18:23;10.80;99.90
8778;DHT22;4425;50.872;4.712;2024-03-23T10:20:52;10.50;99.90
8778;DHT22;4425;50.872;4.712;2024-03-23T10:23:20;10.70;99.90
8778;DHT22;4425;50.872;4.712;2024-03-23T10:25:48;10.60;99.90
8778;DHT22;4425;50.872;4.712;2024-03-23T10:28:15;10.30;99.90
8778;DHT22;4425;50.872;4.712;2024-03-23T10:30:41;10.20;99.90
8778;DHT22;4425;50.872;4.712;2024-03-23T10:33:09;10.10;99.90
8778;DHT22;4425;50.872;4.712;2024-03-23T10:35:36;10.00;99.90
8778;DHT22;4425;50.872;4.712;2024-03-23T10:38:05;10.00;99.90
8778;DHT22;4425;50.872;4.712;2024-03-23T10:40:34;10.00;99.90
8778;DHT22;4425;50.872;4.712;2024-03-23T10:43:03;10.00;99.90
8778;DHT22;4425;50.872;4.712;2024-03-23T10:45:29;10.20;99.90
8778;DHT22;4425;50.872;4.712;2024-03-23T10:47:57;10.40;99.90
8778;DHT22;4425;50.872;4.712;2024-03-23T10:50:23;10.50;99.90
8778;DHT22;4425;50.872;4.712;2024-03-23T10:52:52;10.60;99.90
8778;DHT22;4425;50.872;4.712;2024-03-23T10:55:19;10.90;99.90
8778;DHT22;4425;50.872;4.712;2024-03-23T10:57:51;11.10;99.90
8778;DHT22;4425;50.872;4.712;2024-03-23T11:00:19;11.00;99.90
8778;DHT22;4425;50.872;4.712;2024-03-23T11:02:49;10.80;99.90
8778;DHT22;4425;50.872;4.712;2024-03-23T11:05:31;10.70;99.90
8778;DHT22;4425;50.872;4.712;2024-03-23T11:07:58;10.80;99.90
8778;DHT22;4425;50.872;4.712;2024-03-23T11:10:28;11.00;99.90
8778;DHT22;4425;50.872;4.712;2024-03-23T11:12:57;11.30;99.90
8778;DHT22;4425;50.872;4.712;2024-03-23T11:15:23;11.30;99.90
8778;DHT22;4425;50.872;4.712;2024-03-23T11:18:03;11.40;99.90
8778;DHT22;4425;50.872;4.712;2024-03-23T11:20:31;11.70;99.90
8778;DHT22;4425;50.872;4.712;2024-03-23T11:22:59;11.40;99.90
8778;DHT22;4425;50.872;4.712;2024-03-23T11:25:26;11.40;99.90
8778;DHT22;4425;50.872;4.712;2024-03-23T11:27:57;11.50;99.90
8778;DHT22;4425;50.872;4.712;2024-03-23T11:30:24;11.60;99.90
8778;DHT22;4425;50.872;4.712;2024-03-23T11:32:54;11.70;99.90
8778;DHT22;4425;50.872;4.712;2024-03-23T11:35:27;11.70;99.90
8778;DHT22;4425;50.872;4.712;2024-03-23T11:38:04;11.70;99.90
8778;DHT22;4425;50.872;4.712;2024-03-23T11:40:30;11.60;99.90
8778;DHT22;4425;50.872;4.712;2024-03-23T11:43:00;11.60;99.90
8778;DHT22;4425;50.872;4.712;2024-03-23T11:45:27;11.50;99.90
8778;DHT22;4425;50.872;4.712;2024-03-23T11:48:05;11.80;99.90
8778;DHT22;4425;50.872;4.712;2024-03-23T11:50:31;12.10;99.90
8778;DHT22;4425;50.872;4.712;2024-03-23T11:53:22;12.20;99.90
8778;DHT22;4425;50.872;4.712;2024-03-23T11:55:49;12.20;99.90
8778;DHT22;4425;50.872;4.712;2024-03-23T11:58:19;12.00;99.90
8778;DHT22;4425;50.872;4.712;2024-03-23T12:00:51;12.20;99.90
8778;DHT22;4425;50.872;4.712;2024-03-23T12:03:19;12.30;99.90
8778;DHT22;4425;50.872;4.712;2024-03-23T12:05:48;11.90;99.90
8778;DHT22;4425;50.872;4.712;2024-03-23T12:08:20;11.80;99.90
8778;DHT22;4425;50.872;4.712;2024-03-23T12:10:49;11.80;99.90
8778;DHT22;4425;50.872;4.712;2024-03-23T12:13:19;11.60;99.90
8778;DHT22;4425;50.872;4.712;2024-03-23T12:15:46;11.40;99.90
8778;DHT22;4425;50.872;4.712;2024-03-23T12:18:13;11.30;99.90
8778;DHT22;4425;50.872;4.712;2024-03-23T12:20:40;11.50;99.90
8778;DHT22;4425;50.872;4.712;2024-03-23T12:23:09;11.60;99.90
8778;DHT22;4425;50.872;4.712;2024-03-23T12:25:38;11.70;99.90
8778;DHT22;4425;50.872;4.712;2024-03-23T12:28:08;11.80;99.90
8778;DHT22;4425;50.872;4.712;2024-03-23T12:30:39;11.80;99.90
8778;DHT22;4425;50.872;4.712;2024-03-23T12:33:06;11.60;99.90
8778;DHT22;4425;50.872;4.712;2024-03-23T12:35:32;11.50;99.90
8778;DHT22;4425;50.872;4.712;2024-03-23T12:38:00;11.60;99.90
8778;DHT22;4425;50.872;4.712;2024-03-23T12:40:26;11.80;99.90
8778;DHT22;4425;50.872;4.712;2024-03-23T12:42:53;12.00;99.90
8778;DHT22;4425;50.872;4.712;2024-03-23T12:45:19;12.30;99.90
8778;DHT22;4425;50.872;4.712;2024-03-23T12:47:48;12.20;99.90
8778;DHT22;4425;50.872;4.712;2024-03-23T12:50:14;11.60;99.90
8778;DHT22;4425;50.872;4.712;2024-03-23T12:52:41;11.00;99.90
8778;DHT22;4425;50.872;4.712;2024-03-23T12:55:07;10.70;99.90
8778;DHT22;4425;50.872;4.712;2024-03-23T12:57:34;10.60;99.90
8778;DHT22;4425;50.872;4.712;2024-03-23T13:00:00;10.70;99.90
8778;DHT22;4425;50.872;4.712;2024-03-23T13:02:27;10.70;99.90
8778;DHT22;4425;50.872;4.712;2024-03-23T13:04:55;10.70;99.90
8778;DHT22;4425;50.872;4.712;2024-03-23T13:07:23;11.10;99.90
8778;DHT22;4425;50.872;4.712;2024-03-23T13:09:50;11.30;99.90
8778;DHT22;4425;50.872;4.712;2024-03-23T13:12:17;11.20;99.90
8778;DHT22;4425;50.872;4.712;2024-03-23T13:14:44;11.20;99.90
8778;DHT22;4425;50.872;4.712;2024-03-23T13:17:11;11.30;99.90
8778;DHT22;4425;50.872;4.712;2024-03-23T13:19:37;11.30;99.90
8778;DHT22;4425;50.872;4.712;2024-03-23T13:22:06;11.60;99.90
8778;DHT22;4425;50.872;4.712;2024-03-23T13:24:32;11.40;99.90
8778;DHT22;4425;50.872;4.712;2024-03-23T13:26:59;11.60;99.90
8778;DHT22;4425;50.872;4.712;2024-03-23T13:29:25;12.00;99.90
8778;DHT22;4425;50.872;4.712;2024-03-23T13:31:52;12.20;99.90
8778;DHT22;4425;50.872;4.712;2024-03-23T13:34:18;12.30;99.90
8778;DHT22;4425;50.872;4.712;2024-03-23T13:36:46;12.30;99.90
8778;DHT22;4425;50.872;4.712;2024-03-23T13:39:14;12.10;99.90
8778;DHT22;4425;50.872;4.712;2024-03-23T13:41:42;12.10;99.90
8778;DHT22;4425;50.872;4.712;2024-03-23T13:44:08;11.80;99.90
8778;DHT22;4425;50.872;4.712;2024-03-23T13:46:37;11.70;99.90
8778;DHT22;4425;50.872;4.712;2024-03-23T13:49:03;11.60;99.90
8778;DHT22;4425;50.872;4.712;2024-03-23T13:51:30;11.30;99.90
8778;DHT22;4425;50.872;4.712;2024-03-23T13:53:57;11.00;99.90
8778;DHT22;4425;50.872;4.712;2024-03-23T13:56:28;10.80;99.90
8778;DHT22;4425;50.872;4.712;2024-03-23T13:58:54;10.80;99.90
8778;DHT22;4425;50.872;4.712;2024-03-23T14:01:22;10.80;99.90
8778;DHT22;4425;50.872;4.712;2024-03-23T14:03:48;10.60;99.90
8778;DHT22;4425;50.872;4.712;2024-03-23T14:06:15;10.90;99.90
8778;DHT22;4425;50.872;4.712;2024-03-23T14:08:41;10.70;99.90
8778;DHT22;4425;50.872;4.712;2024-03-23T14:11:09;10.60;99.90
8778;DHT22;4425;50.872;4.712;2024-03-23T14:13:36;10.40;99.90
8778;DHT22;4425;50.872;4.712;2024-03-23T14:16:04;10.00;99.90
8778;DHT22;4425;50.872;4.712;2024-03-23T14:18:30;9.80;99.90
8778;DHT22;4425;50.872;4.712;2024-03-23T14:20:59;9.70;99.90
8778;DHT22;4425;50.872;4.712;2024-03-23T14:23:26;9.70;99.90
8778;DHT22;4425;50.872;4.712;2024-03-23T14:25:53;9.70;99.90
8778;DHT22;4425;50.872;4.712;2024-03-23T14:28:20;9.80;99.90
8778;DHT22;4425;50.872;4.712;2024-03-23T14:30:49;9.70;99.90
8778;DHT22;4425;50.872;4.712;2024-03-23T14:33:15;9.50;99.90
8778;DHT22;4425;50.872;4.712;2024-03-23T14:35:52;9.50;99.90
8778;DHT22;4425;50.872;4.712;2024-03-23T14:38:18;9.30;99.90
8778;DHT22;4425;50.872;4.712;2024-03-23T14:40:45;9.20;99.90
8778;DHT22;4425;50.872;4.712;2024-03-23T14:43:11;9.20;99.90
8778;DHT22;4425;50.872;4.712;2024-03-23T14:48:31;9.60;99.90
8778;DHT22;4425;50.872;4.712;2024-03-23T14:50:58;9.90;99.90
8778;DHT22;4425;50.872;4.712;2024-03-23T14:53:25;10.10;99.90
8778;DHT22;4425;50.872;4.712;2024-03-23T14:55:54;10.20;99.90
8778;DHT22;4425;50.872;4.712;2024-03-23T14:58:20;10.40;99.90
8778;DHT22;4425;50.872;4.712;2024-03-23T15:00:48;10.50;99.90
8778;DHT22;4425;50.872;4.712;2024-03-23T15:03:14;10.60;99.90
8778;DHT22;4425;50.872;4.712;2024-03-23T15:05:42;10.60;99.90
8778;DHT22;4425;50.872;4.712;2024-03-23T15:08:17;10.60;99.90
8778;DHT22;4425;50.872;4.712;2024-03-23T15:10:44;10.70;99.90
8778;DHT22;4425;50.872;4.712;2024-03-23T15:13:09;10.40;99.90
8778;DHT22;4425;50.872;4.712;2024-03-23T15:15:38;10.50;99.90
8778;DHT22;4425;50.872;4.712;2024-03-23T15:18:05;10.50;99.90
8778;DHT22;4425;50.872;4.712;2024-03-23T15:20:32;10.60;99.90
8778;DHT22;4425;50.872;4.712;2024-03-23T15:23:02;10.60;99.90
8778;DHT22;4425;50.872;4.712;2024-03-23T15:25:29;10.50;99.90
8778;DHT22;4425;50.872;4.712;2024-03-23T15:27:56;10.30;99.90
8778;DHT22;4425;50.872;4.712;2024-03-23T15:30:23;10.40;99.90
8778;DHT22;4425;50.872;4.712;2024-03-23T15:32:49;10.50;99.90
8778;DHT22;4425;50.872;4.712;2024-03-23T15:35:16;10.60;99.90
8778;DHT22;4425;50.872;4.712;2024-03-23T15:37:42;10.70;99.90
8778;DHT22;4425;50.872;4.712;2024-03-23T15:40:11;10.70;99.90
8778;DHT22;4425;50.872;4.712;2024-03-23T15:42:38;10.70;99.90
8778;DHT22;4425;50.872;4.712;2024-03-23T15:45:06;10.70;99.90
8778;DHT22;4425;50.872;4.712;2024-03-23T15:47:33;10.70;99.90
8778;DHT22;4425;50.872;4.712;2024-03-23T15:50:00;10.70;99.90
8778;DHT22;4425;50.872;4.712;2024-03-23T15:52:26;10.50;99.90
8778;DHT22;4425;50.872;4.712;2024-03-23T15:54:53;10.50;99.90
8778;DHT22;4425;50.872;4.712;2024-03-23T15:57:20;10.40;99.90
8778;DHT22;4425;50.872;4.712;2024-03-23T15:59:47;10.60;99.90
8778;DHT22;4425;50.872;4.712;2024-03-23T16:02:13;10.40;99.90
8778;DHT22;4425;50.872;4.712;2024-03-23T16:04:40;10.30;99.90
8778;DHT22;4425;50.872;4.712;2024-03-23T16:07:06;10.20;99.90
8778;DHT22;4425;50.872;4.712;2024-03-23T16:09:33;10.10;99.90
8778;DHT22;4425;50.872;4.712;2024-03-23T16:11:59;10.10;99.90
8778;DHT22;4425;50.872;4.712;2024-03-23T16:14:27;10.10;99.90
8778;DHT22;4425;50.872;4.712;2024-03-23T16:16:53;10.20;99.90
8778;DHT22;4425;50.872;4.712;2024-03-23T16:19:20;10.10;99.90
8778;DHT22;4425;50.872;4.712;2024-03-23T16:21:47;10.20;99.90
8778;DHT22;4425;50.872;4.712;2024-03-23T16:24:14;10.20;99.90
8778;DHT22;4425;50.872;4.712;2024-03-23T16:26:40;10.20;99.90
8778;DHT22;4425;50.872;4.712;2024-03-23T16:29:07;9.90;99.90
8778;DHT22;4425;50.872;4.712;2024-03-23T16:31:36;9.80;99.90
8778;DHT22;4425;50.872;4.712;2024-03-23T16:34:03;9.60;99.90
8778;DHT22;4425;50.872;4.712;2024-03-23T16:36:29;9.90;99.90
8778;DHT22;4425;50.872;4.712;2024-03-23T16:38:56;9.60;99.90
8778;DHT22;4425;50.872;4.712;2024-03-23T16:41:22;9.60;99.90
8778;DHT22;4425;50.872;4.712;2024-03-23T16:43:48;9.70;99.90
8778;DHT22;4425;50.872;4.712;2024-03-23T16:46:15;9.60;99.90
8778;DHT22;4425;50.872;4.712;2024-03-23T16:48:44;9.50;99.90
8778;DHT22;4425;50.872;4.712;2024-03-23T16:51:12;9.50;99.90
8778;DHT22;4425;50.872;4.712;2024-03-23T16:53:39;9.50;99.90
8778;DHT22;4425;50.872;4.712;2024-03-23T16:56:07;9.50;99.90
8778;DHT22;4425;50.872;4.712;2024-03-23T16:58:35;9.50;99.90
8778;DHT22;4425;50.872;4.712;2024-03-23T17:01:03;9.50;99.90
8778;DHT22;4425;50.872;4.712;2024-03-23T17:03:32;9.50;99.90
8778;DHT22;4425;50.872;4.712;2024-03-23T17:06:03;9.50;99.90